createdAt,value
2019-02-04T00:00:45.456Z,75.62
2019-02-04T00:01:50.311Z,75.54
2019-02-04T00:02:53.926Z,75.14
2019-02-04T00:03:57.608Z,75.05
2019-02-04T00:05:01.038Z,75.23
2019-02-04T00:06:04.699Z,75.31
2019-02-04T00:07:08.339Z,75.37
2019-02-04T00:08:12.166Z,75.30
2019-02-04T00:09:15.945Z,75.60
2019-02-04T00:10:19.511Z,75.73
2019-02-04T00:11:23.154Z,75.90
2019-02-04T00:12:26.689Z,75.71
2019-02-04T00:13:30.291Z,75.81
2019-02-04T00:14:33.774Z,76.03
2019-02-04T00:15:37.460Z,76.20
2019-02-04T00:16:41.389Z,76.16
2019-02-04T00:17:44.883Z,75.88
2019-02-04T00:18:48.476Z,75.89
2019-02-04T00:19:52.115Z,76.41
2019-02-04T00:20:56.049Z,76.42
2019-02-04T00:21:59.481Z,76.27
2019-02-04T00:23:03.435Z,76.10
2019-02-04T00:24:06.959Z,75.87
2019-02-04T00:25:10.561Z,75.67
2019-02-04T00:26:14.126Z,75.84
2019-02-04T00:27:17.638Z,75.85
2019-02-04T00:28:21.141Z,76.05
2019-02-04T00:29:24.682Z,76.28
2019-02-04T00:30:28.899Z,76.35
2019-02-04T00:31:32.470Z,76.28
2019-02-04T00:32:35.903Z,76.10
2019-02-04T00:33:39.406Z,76.18
2019-02-04T00:34:42.938Z,76.46
2019-02-04T00:35:46.468Z,76.61
2019-02-04T00:36:50.204Z,76.52
2019-02-04T00:37:54.167Z,76.80
2019-02-04T00:38:57.645Z,76.86
2019-02-04T00:40:01.107Z,76.61
2019-02-04T00:41:04.708Z,76.32
2019-02-04T00:42:08.277Z,76.43
2019-02-04T00:43:11.867Z,76.20
2019-02-04T00:44:15.297Z,76.19
2019-02-04T00:45:18.834Z,75.95
2019-02-04T00:46:22.265Z,75.96
2019-02-04T00:47:25.703Z,76.14
2019-02-04T00:48:29.283Z,76.37
2019-02-04T00:49:32.809Z,76.31
2019-02-04T00:50:36.610Z,76.12
2019-02-04T00:51:40.527Z,76.29
2019-02-04T00:52:44.141Z,76.27
2019-02-04T00:53:47.693Z,76.28
2019-02-04T00:54:51.206Z,76.19
2019-02-04T00:55:54.734Z,76.10
2019-02-04T00:56:58.373Z,76.01
2019-02-04T00:58:01.848Z,76.00
2019-02-04T00:59:05.638Z,75.88
2019-02-04T01:00:24.079Z,75.75
2019-02-04T01:01:27.716Z,75.47
2019-02-04T01:02:31.228Z,75.57
2019-02-04T01:03:34.751Z,75.71
2019-02-04T01:04:38.327Z,75.73
2019-02-04T01:05:41.768Z,75.62
2019-02-04T01:06:45.414Z,75.67
2019-02-04T01:07:49.390Z,75.82
2019-02-04T01:08:54.706Z,75.88
2019-02-04T01:09:58.305Z,75.87
2019-02-04T01:11:02.047Z,75.78
2019-02-04T01:12:05.681Z,75.66
2019-02-04T01:13:09.237Z,75.96
2019-02-04T01:14:12.817Z,76.06
2019-02-04T01:15:16.375Z,75.94
2019-02-04T01:16:19.943Z,75.86
2019-02-04T01:17:23.478Z,75.77
2019-02-04T01:18:26.935Z,75.76
2019-02-04T01:19:30.459Z,75.57
2019-02-04T01:20:34.025Z,75.37
2019-02-04T01:21:37.631Z,75.40
2019-02-04T01:22:41.290Z,75.61
2019-02-04T01:23:45.108Z,75.63
2019-02-04T01:24:48.554Z,75.47
2019-02-04T01:25:52.122Z,75.50
2019-02-04T01:26:55.736Z,75.30
2019-02-04T01:27:59.280Z,75.28
2019-02-04T01:29:03.016Z,75.12
2019-02-04T01:30:12.325Z,75.09
2019-02-04T01:31:15.852Z,75.08
2019-02-04T01:32:19.366Z,75.15
2019-02-04T01:33:22.824Z,75.09
2019-02-04T01:34:26.270Z,74.92
2019-02-04T01:35:29.707Z,74.86
2019-02-04T01:36:33.227Z,74.79
2019-02-04T01:37:36.657Z,74.85
2019-02-04T01:38:40.294Z,74.96
2019-02-04T01:39:44.079Z,74.89
2019-02-04T01:40:47.510Z,74.75
2019-02-04T01:41:50.939Z,74.80
2019-02-04T01:42:55.321Z,74.56
2019-02-04T01:43:58.972Z,74.90
2019-02-04T01:45:02.627Z,74.72
2019-02-04T01:46:06.076Z,74.46
2019-02-04T01:47:14.731Z,74.51
2019-02-04T01:48:14.901Z,74.19
2019-02-04T01:49:18.423Z,74.21
2019-02-04T01:50:22.946Z,74.22
2019-02-04T01:51:26.418Z,74.27
2019-02-04T01:52:30.007Z,74.40
2019-02-04T01:53:33.611Z,74.19
2019-02-04T01:54:37.437Z,74.27
2019-02-04T01:55:41.003Z,74.32
2019-02-04T01:56:44.438Z,74.25
2019-02-04T01:57:50.427Z,74.03
2019-02-04T01:58:53.881Z,74.09
2019-02-04T01:59:57.309Z,74.32
2019-02-04T02:01:00.894Z,74.20
2019-02-04T02:02:04.493Z,74.11
2019-02-04T02:03:08.090Z,73.88
2019-02-04T02:04:11.637Z,73.73
2019-02-04T02:05:15.620Z,73.58
2019-02-04T02:06:19.130Z,73.53
2019-02-04T02:07:22.693Z,73.73
2019-02-04T02:08:26.396Z,73.60
2019-02-04T02:09:30.437Z,73.75
2019-02-04T02:10:34.051Z,73.99
2019-02-04T02:11:37.625Z,73.93
2019-02-04T02:12:41.212Z,73.75
2019-02-04T02:13:44.736Z,73.96
2019-02-04T02:14:48.263Z,73.82
2019-02-04T02:15:51.710Z,73.85
2019-02-04T02:16:55.256Z,73.76
2019-02-04T02:17:58.766Z,73.61
2019-02-04T02:19:02.347Z,73.49
2019-02-04T02:20:09.192Z,73.54
2019-02-04T02:21:12.680Z,73.46
2019-02-04T02:22:16.109Z,73.49
2019-02-04T02:23:19.613Z,73.86
2019-02-04T02:24:23.519Z,73.87
2019-02-04T02:25:27.120Z,73.89
2019-02-04T02:26:30.559Z,73.95
2019-02-04T02:27:34.063Z,74.00
2019-02-04T02:28:37.494Z,74.20
2019-02-04T02:29:40.989Z,74.43
2019-02-04T02:30:44.526Z,74.30
2019-02-04T02:31:48.098Z,74.06
2019-02-04T02:32:51.634Z,74.16
2019-02-04T02:33:55.053Z,73.77
2019-02-04T02:34:58.516Z,73.56
2019-02-04T02:36:01.976Z,73.59
2019-02-04T02:37:05.513Z,73.51
2019-02-04T02:38:09.339Z,73.63
2019-02-04T02:39:12.798Z,73.73
2019-02-04T02:40:19.305Z,73.57
2019-02-04T02:41:22.760Z,73.37
2019-02-04T02:42:26.269Z,73.17
2019-02-04T02:43:29.698Z,73.08
2019-02-04T02:44:33.127Z,73.28
2019-02-04T02:45:36.572Z,73.53
2019-02-04T02:46:40.087Z,73.42
2019-02-04T02:47:43.601Z,73.44
2019-02-04T02:48:47.038Z,73.34
2019-02-04T02:49:50.545Z,73.27
2019-02-04T02:50:54.008Z,73.27
2019-02-04T02:51:57.805Z,73.31
2019-02-04T02:53:01.607Z,73.07
2019-02-04T02:54:05.183Z,73.08
2019-02-04T02:55:17.333Z,73.09
2019-02-04T02:56:20.928Z,72.98
2019-02-04T02:57:24.366Z,72.74
2019-02-04T02:58:27.806Z,72.53
2019-02-04T02:59:31.259Z,72.40
2019-02-04T03:00:34.996Z,72.23
2019-02-04T03:01:38.449Z,72.29
2019-02-04T03:02:41.943Z,72.34
2019-02-04T03:03:45.523Z,72.29
2019-02-04T03:04:49.026Z,72.33
2019-02-04T03:05:52.614Z,72.31
2019-02-04T03:06:56.207Z,72.32
2019-02-04T03:08:00.099Z,72.26
2019-02-04T03:09:05.409Z,72.07
2019-02-04T03:10:11.692Z,72.05
2019-02-04T03:11:15.278Z,72.03
2019-02-04T03:12:18.748Z,71.79
2019-02-04T03:13:22.207Z,72.00
2019-02-04T03:14:25.643Z,72.06
2019-02-04T03:15:29.212Z,72.16
2019-02-04T03:16:32.806Z,72.13
2019-02-04T03:17:36.385Z,71.95
2019-02-04T03:18:39.883Z,71.77
2019-02-04T03:19:43.353Z,71.82
2019-02-04T03:20:46.847Z,71.85
2019-02-04T03:21:50.304Z,71.51
2019-02-04T03:22:53.756Z,71.62
2019-02-04T03:24:00.637Z,71.68
2019-02-04T03:25:02.884Z,71.66
2019-02-04T03:26:06.563Z,71.88
2019-02-04T03:27:09.977Z,71.92
2019-02-04T03:28:13.505Z,71.94
2019-02-04T03:29:17.119Z,72.14
2019-02-04T03:30:31.339Z,71.98
2019-02-04T03:31:34.933Z,71.72
2019-02-04T03:32:38.415Z,71.69
2019-02-04T03:33:41.955Z,71.80
2019-02-04T03:34:45.426Z,71.85
2019-02-04T03:35:48.869Z,71.82
2019-02-04T03:36:52.292Z,71.82
2019-02-04T03:37:55.879Z,71.74
2019-02-04T03:38:59.548Z,71.97
2019-02-04T03:40:04.900Z,71.98
2019-02-04T03:41:08.679Z,71.86
2019-02-04T03:42:12.193Z,71.85
2019-02-04T03:43:15.657Z,71.78
2019-02-04T03:44:19.103Z,71.82
2019-02-04T03:45:22.692Z,71.58
2019-02-04T03:46:26.280Z,71.74
2019-02-04T03:47:29.709Z,71.74
2019-02-04T03:48:33.146Z,71.69
2019-02-04T03:49:36.610Z,71.72
2019-02-04T03:50:40.107Z,71.73
2019-02-04T03:51:43.614Z,71.68
2019-02-04T03:52:47.195Z,71.69
2019-02-04T03:53:50.697Z,71.75
2019-02-04T03:54:54.299Z,71.79
2019-02-04T03:55:59.627Z,71.75
2019-02-04T03:57:03.227Z,71.67
2019-02-04T03:58:06.793Z,71.54
2019-02-04T03:59:10.380Z,71.64
2019-02-04T04:00:19.586Z,71.61
2019-02-04T04:01:23.184Z,71.69
2019-02-04T04:02:26.623Z,71.60
2019-02-04T04:03:30.126Z,71.63
2019-02-04T04:04:33.627Z,71.47
2019-02-04T04:05:37.318Z,71.49
2019-02-04T04:06:40.819Z,71.59
2019-02-04T04:07:44.342Z,71.52
2019-02-04T04:08:47.862Z,71.58
2019-02-04T04:09:51.291Z,71.56
2019-02-04T04:10:54.935Z,71.59
2019-02-04T04:11:58.369Z,71.57
2019-02-04T04:13:01.871Z,71.38
2019-02-04T04:14:05.579Z,71.37
2019-02-04T04:15:11.538Z,71.50
2019-02-04T04:16:15.069Z,71.58
2019-02-04T04:17:18.603Z,71.48
2019-02-04T04:18:22.115Z,71.42
2019-02-04T04:19:25.611Z,71.36
2019-02-04T04:20:29.127Z,71.34
2019-02-04T04:21:32.578Z,71.47
2019-02-04T04:22:36.082Z,71.54
2019-02-04T04:23:39.584Z,71.39
2019-02-04T04:24:43.088Z,71.67
2019-02-04T04:25:46.789Z,71.97
2019-02-04T04:26:50.252Z,72.06
2019-02-04T04:27:53.740Z,71.90
2019-02-04T04:28:57.189Z,71.87
2019-02-04T04:30:00.624Z,71.66
2019-02-04T04:31:04.217Z,71.63
2019-02-04T04:32:07.747Z,71.30
2019-02-04T04:33:11.249Z,71.47
2019-02-04T04:34:14.693Z,71.47
2019-02-04T04:35:18.269Z,71.33
2019-02-04T04:36:21.701Z,71.37
2019-02-04T04:37:25.215Z,71.33
2019-02-04T04:38:28.735Z,71.28
2019-02-04T04:39:32.339Z,71.26
2019-02-04T04:40:35.788Z,71.34
2019-02-04T04:41:39.300Z,71.21
2019-02-04T04:42:42.909Z,71.08
2019-02-04T04:43:46.368Z,71.24
2019-02-04T04:44:49.801Z,71.26
2019-02-04T04:45:53.300Z,71.21
2019-02-04T04:46:56.729Z,71.25
2019-02-04T04:48:00.197Z,70.85
2019-02-04T04:49:03.628Z,71.05
2019-02-04T04:50:08.802Z,71.10
2019-02-04T04:51:12.226Z,71.05
2019-02-04T04:52:15.659Z,70.94
2019-02-04T04:53:19.305Z,71.05
2019-02-04T04:54:23.099Z,71.07
2019-02-04T04:55:27.281Z,71.09
2019-02-04T04:56:30.788Z,71.12
2019-02-04T04:57:34.220Z,71.20
2019-02-04T04:58:40.583Z,71.15
2019-02-04T04:59:42.866Z,71.10
2019-02-04T05:00:46.446Z,71.02
2019-02-04T05:01:49.884Z,71.02
2019-02-04T05:02:53.385Z,70.97
2019-02-04T05:03:56.923Z,71.08
2019-02-04T05:05:00.348Z,71.02
2019-02-04T05:06:03.902Z,70.97
2019-02-04T05:07:07.407Z,70.94
2019-02-04T05:08:11.282Z,71.13
2019-02-04T05:09:14.753Z,71.14
2019-02-04T05:10:20.782Z,71.64
2019-02-04T05:11:24.227Z,71.62
2019-02-04T05:12:27.782Z,71.47
2019-02-04T05:13:31.167Z,71.05
2019-02-04T05:14:34.696Z,71.11
2019-02-04T05:15:38.149Z,71.20
2019-02-04T05:16:41.591Z,71.25
2019-02-04T05:17:45.157Z,71.14
2019-02-04T05:18:48.599Z,71.12
2019-02-04T05:19:52.062Z,71.13
2019-02-04T05:20:55.533Z,71.25
2019-02-04T05:21:58.967Z,71.14
2019-02-04T05:23:02.775Z,71.12
2019-02-04T05:24:06.212Z,71.16
2019-02-04T05:25:10.305Z,70.73
2019-02-04T05:26:13.778Z,70.82
2019-02-04T05:27:17.207Z,70.96
2019-02-04T05:28:20.634Z,70.95
2019-02-04T05:29:24.138Z,70.55
2019-02-04T05:30:27.658Z,70.57
2019-02-04T05:31:31.159Z,70.51
2019-02-04T05:32:34.752Z,70.59
2019-02-04T05:33:38.245Z,70.82
2019-02-04T05:34:41.698Z,70.79
2019-02-04T05:35:45.162Z,70.86
2019-02-04T05:36:48.892Z,70.78
2019-02-04T05:37:52.830Z,70.68
2019-02-04T05:38:56.325Z,70.81
2019-02-04T05:39:59.769Z,70.86
2019-02-04T05:41:03.376Z,70.84
2019-02-04T05:42:06.805Z,70.71
2019-02-04T05:43:10.245Z,70.81
2019-02-04T05:44:13.676Z,70.79
2019-02-04T05:45:20.843Z,70.88
2019-02-04T05:46:24.288Z,70.85
2019-02-04T05:47:27.751Z,70.74
2019-02-04T05:48:31.164Z,70.74
2019-02-04T05:49:34.772Z,70.76
2019-02-04T05:50:38.217Z,70.87
2019-02-04T05:51:42.061Z,70.87
2019-02-04T05:52:45.717Z,70.81
2019-02-04T05:53:49.146Z,70.86
2019-02-04T05:54:52.590Z,70.85
2019-02-04T05:55:56.038Z,70.76
2019-02-04T05:56:59.516Z,70.67
2019-02-04T05:58:03.030Z,70.68
2019-02-04T05:59:06.715Z,70.73
2019-02-04T06:00:16.465Z,70.84
2019-02-04T06:01:19.941Z,70.88
2019-02-04T06:02:23.436Z,70.84
2019-02-04T06:03:26.948Z,70.83
2019-02-04T06:04:30.457Z,70.86
2019-02-04T06:05:34.031Z,70.89
2019-02-04T06:06:37.683Z,70.87
2019-02-04T06:07:41.314Z,70.84
2019-02-04T06:08:44.743Z,70.80
2019-02-04T06:09:48.207Z,70.89
2019-02-04T06:10:51.633Z,70.93
2019-02-04T06:11:55.078Z,70.92
2019-02-04T06:12:58.546Z,70.89
2019-02-04T06:14:01.969Z,70.82
2019-02-04T06:15:11.396Z,70.85
2019-02-04T06:16:14.891Z,70.93
2019-02-04T06:17:18.357Z,70.80
2019-02-04T06:18:21.887Z,70.60
2019-02-04T06:19:25.330Z,70.96
2019-02-04T06:20:29.015Z,70.89
2019-02-04T06:21:32.477Z,70.83
2019-02-04T06:22:36.206Z,70.87
2019-02-04T06:23:39.867Z,70.98
2019-02-04T06:24:43.284Z,71.02
2019-02-04T06:25:46.846Z,70.95
2019-02-04T06:26:50.287Z,70.90
2019-02-04T06:27:53.832Z,70.92
2019-02-04T06:28:57.348Z,71.15
2019-02-04T06:30:00.781Z,71.45
2019-02-04T06:31:04.433Z,71.23
2019-02-04T06:32:07.935Z,71.18
2019-02-04T06:33:11.452Z,71.19
2019-02-04T06:34:14.985Z,71.14
2019-02-04T06:35:19.060Z,71.04
2019-02-04T06:36:22.784Z,70.95
2019-02-04T06:37:26.214Z,70.96
2019-02-04T06:38:29.677Z,71.04
2019-02-04T06:39:33.117Z,70.99
2019-02-04T06:40:36.727Z,70.83
2019-02-04T06:41:40.202Z,70.77
2019-02-04T06:42:43.800Z,71.02
2019-02-04T06:43:47.256Z,71.43
2019-02-04T06:44:50.681Z,71.43
2019-02-04T06:45:54.112Z,71.29
2019-02-04T06:46:57.548Z,71.15
2019-02-04T06:48:01.077Z,71.06
2019-02-04T06:49:12.013Z,71.02
2019-02-04T06:50:14.692Z,71.03
2019-02-04T06:51:18.373Z,70.95
2019-02-04T06:52:22.082Z,70.84
2019-02-04T06:53:25.542Z,70.84
2019-02-04T06:54:29.120Z,70.70
2019-02-04T06:55:33.717Z,70.75
2019-02-04T06:56:37.156Z,70.68
2019-02-04T06:57:40.585Z,70.76
2019-02-04T06:58:44.050Z,70.85
2019-02-04T06:59:47.529Z,70.96
2019-02-04T07:00:50.971Z,70.80
2019-02-04T07:01:54.559Z,70.94
2019-02-04T07:02:58.149Z,71.14
2019-02-04T07:04:01.678Z,70.69
2019-02-04T07:05:07.428Z,70.67
2019-02-04T07:06:11.278Z,70.49
2019-02-04T07:07:15.272Z,70.42
2019-02-04T07:08:18.767Z,70.60
2019-02-04T07:09:22.214Z,70.76
2019-02-04T07:10:27.434Z,70.79
2019-02-04T07:11:30.931Z,70.86
2019-02-04T07:12:34.367Z,70.81
2019-02-04T07:13:42.135Z,70.83
2019-02-04T07:14:42.973Z,70.88
2019-02-04T07:15:46.569Z,70.95
2019-02-04T07:16:50.007Z,71.04
2019-02-04T07:17:53.443Z,71.13
2019-02-04T07:18:56.877Z,71.44
2019-02-04T07:20:00.739Z,71.49
2019-02-04T07:21:04.753Z,71.53
2019-02-04T07:22:08.367Z,71.67
2019-02-04T07:23:11.811Z,70.82
2019-02-04T07:24:15.256Z,71.12
2019-02-04T07:25:19.391Z,71.18
2019-02-04T07:26:22.890Z,71.13
2019-02-04T07:27:26.325Z,71.13
2019-02-04T07:28:29.902Z,71.17
2019-02-04T07:29:33.348Z,71.26
2019-02-04T07:30:36.814Z,71.08
2019-02-04T07:31:40.319Z,71.13
2019-02-04T07:32:44.019Z,71.34
2019-02-04T07:33:47.737Z,71.49
2019-02-04T07:34:51.218Z,71.48
2019-02-04T07:35:54.764Z,71.13
2019-02-04T07:36:58.177Z,71.09
2019-02-04T07:38:01.683Z,71.28
2019-02-04T07:39:07.548Z,71.26
2019-02-04T07:40:14.022Z,71.28
2019-02-04T07:41:17.481Z,71.25
2019-02-04T07:42:20.921Z,71.16
2019-02-04T07:43:24.419Z,71.08
2019-02-04T07:44:27.930Z,70.99
2019-02-04T07:45:31.542Z,70.85
2019-02-04T07:46:35.074Z,71.14
2019-02-04T07:47:38.569Z,71.22
2019-02-04T07:48:42.345Z,71.16
2019-02-04T07:49:45.808Z,71.16
2019-02-04T07:50:49.246Z,71.25
2019-02-04T07:51:52.690Z,71.14
2019-02-04T07:52:56.282Z,71.28
2019-02-04T07:53:59.779Z,71.38
2019-02-04T07:55:03.355Z,71.39
2019-02-04T07:56:06.973Z,71.08
2019-02-04T07:57:10.567Z,71.02
2019-02-04T07:58:14.071Z,71.06
2019-02-04T07:59:17.562Z,71.28
2019-02-04T08:00:23.357Z,71.44
2019-02-04T08:01:26.887Z,71.52
2019-02-04T08:02:30.504Z,71.44
2019-02-04T08:03:34.539Z,71.31
2019-02-04T08:04:38.039Z,71.31
2019-02-04T08:05:41.545Z,71.23
2019-02-04T08:06:45.008Z,71.12
2019-02-04T08:07:48.518Z,71.02
2019-02-04T08:08:52.025Z,70.89
2019-02-04T08:09:55.560Z,70.90
2019-02-04T08:10:59.052Z,71.07
2019-02-04T08:12:02.582Z,70.78
2019-02-04T08:13:06.252Z,71.07
2019-02-04T08:14:09.782Z,71.49
2019-02-04T08:15:18.819Z,71.16
2019-02-04T08:16:22.430Z,71.37
2019-02-04T08:17:25.971Z,71.36
2019-02-04T08:18:29.884Z,71.61
2019-02-04T08:19:33.319Z,71.80
2019-02-04T08:20:36.823Z,71.92
2019-02-04T08:21:40.257Z,71.92
2019-02-04T08:22:43.860Z,71.85
2019-02-04T08:23:47.326Z,71.81
2019-02-04T08:24:50.826Z,71.82
2019-02-04T08:25:54.250Z,71.70
2019-02-04T08:26:57.756Z,71.54
2019-02-04T08:28:01.289Z,71.49
2019-02-04T08:29:04.969Z,71.50
2019-02-04T08:30:14.318Z,71.38
2019-02-04T08:31:17.970Z,71.24
2019-02-04T08:32:21.400Z,70.90
2019-02-04T08:33:25.231Z,70.72
2019-02-04T08:34:28.667Z,70.57
2019-02-04T08:35:32.244Z,70.43
2019-02-04T08:36:43.488Z,70.38
2019-02-04T08:37:41.029Z,70.30
2019-02-04T08:38:44.479Z,70.24
2019-02-04T08:39:47.980Z,70.29
2019-02-04T08:40:51.492Z,70.09
2019-02-04T08:41:54.919Z,70.11
2019-02-04T08:42:58.431Z,70.12
2019-02-04T08:44:02.087Z,70.13
2019-02-04T08:45:07.593Z,70.30
2019-02-04T08:46:11.164Z,70.20
2019-02-04T08:47:22.809Z,70.27
2019-02-04T08:48:20.280Z,70.14
2019-02-04T08:49:23.797Z,69.81
2019-02-04T08:50:28.281Z,69.74
2019-02-04T08:51:31.709Z,69.80
2019-02-04T08:52:35.146Z,69.73
2019-02-04T08:53:38.605Z,69.77
2019-02-04T08:54:42.061Z,69.54
2019-02-04T08:55:45.495Z,69.68
2019-02-04T08:56:48.927Z,69.87
2019-02-04T08:57:52.497Z,69.95
2019-02-04T08:58:55.956Z,69.93
2019-02-04T08:59:59.399Z,69.61
2019-02-04T09:01:03.416Z,69.40
2019-02-04T09:02:06.918Z,69.77
2019-02-04T09:03:10.497Z,69.72
2019-02-04T09:04:14.022Z,69.67
2019-02-04T09:05:18.413Z,69.66
2019-02-04T09:06:21.916Z,69.57
2019-02-04T09:07:25.410Z,69.49
2019-02-04T09:08:28.843Z,68.85
2019-02-04T09:09:32.373Z,68.70
2019-02-04T09:10:35.805Z,68.51
2019-02-04T09:11:39.303Z,68.37
2019-02-04T09:12:42.867Z,67.62
2019-02-04T09:13:46.577Z,67.28
2019-02-04T09:14:50.165Z,67.45
2019-02-04T09:15:53.628Z,67.33
2019-02-04T09:16:57.070Z,67.13
2019-02-04T09:18:00.838Z,67.02
2019-02-04T09:19:04.530Z,67.33
2019-02-04T09:20:11.258Z,67.20
2019-02-04T09:21:14.766Z,67.65
2019-02-04T09:22:18.223Z,67.40
2019-02-04T09:23:21.711Z,67.03
2019-02-04T09:24:25.130Z,67.09
2019-02-04T09:25:28.727Z,66.94
2019-02-04T09:26:32.233Z,66.89
2019-02-04T09:27:35.937Z,66.52
2019-02-04T09:28:39.434Z,66.43
2019-02-04T09:29:42.949Z,65.62
2019-02-04T09:30:46.537Z,66.14
2019-02-04T09:31:49.964Z,65.46
2019-02-04T09:32:54.083Z,66.12
2019-02-04T09:33:57.583Z,66.24
2019-02-04T09:35:01.018Z,66.23
2019-02-04T09:36:04.612Z,66.53
2019-02-04T09:37:08.119Z,65.92
2019-02-04T09:38:11.621Z,65.68
2019-02-04T09:39:15.191Z,65.73
2019-02-04T09:40:30.138Z,65.27
2019-02-04T09:41:33.676Z,65.51
2019-02-04T09:42:37.156Z,65.53
2019-02-04T09:43:40.878Z,65.31
2019-02-04T09:44:44.311Z,64.78
2019-02-04T09:45:47.792Z,64.92
2019-02-04T09:46:51.271Z,65.57
2019-02-04T09:47:54.853Z,65.57
2019-02-04T09:48:58.366Z,64.81
2019-02-04T09:50:01.804Z,64.95
2019-02-04T09:51:05.422Z,64.83
2019-02-04T09:52:08.865Z,65.49
2019-02-04T09:53:12.359Z,65.52
2019-02-04T09:54:15.859Z,65.37
2019-02-04T09:55:22.077Z,64.52
2019-02-04T09:56:25.598Z,64.58
2019-02-04T09:57:29.338Z,64.31
2019-02-04T09:58:48.429Z,64.38
2019-02-04T09:59:51.992Z,64.58
2019-02-04T10:00:55.926Z,63.76
2019-02-04T10:01:59.455Z,64.55
2019-02-04T10:03:03.123Z,64.17
2019-02-04T10:04:06.696Z,64.18
2019-02-04T10:05:12.871Z,64.30
2019-02-04T10:06:16.366Z,64.32
2019-02-04T10:07:19.975Z,63.83
2019-02-04T10:08:23.542Z,63.23
2019-02-04T10:09:34.522Z,62.69
2019-02-04T10:10:38.095Z,62.82
2019-02-04T10:11:41.611Z,61.91
2019-02-04T10:12:45.235Z,62.39
2019-02-04T10:13:48.869Z,63.62
2019-02-04T10:14:52.387Z,63.36
2019-02-04T10:15:55.860Z,63.75
2019-02-04T10:16:59.313Z,63.84
2019-02-04T10:18:03.385Z,64.01
2019-02-04T10:19:06.991Z,63.73
2019-02-04T10:20:13.841Z,64.38
2019-02-04T10:21:17.560Z,63.81
2019-02-04T10:22:21.050Z,64.58
2019-02-04T10:23:24.679Z,64.60
2019-02-04T10:24:28.145Z,64.84
2019-02-04T10:25:34.310Z,64.28
2019-02-04T10:26:37.748Z,64.26
2019-02-04T10:27:41.287Z,64.11
2019-02-04T10:28:44.828Z,64.83
2019-02-04T10:29:48.310Z,64.93
2019-02-04T10:30:51.741Z,64.89
2019-02-04T10:31:55.189Z,64.31
2019-02-04T10:32:59.039Z,64.15
2019-02-04T10:34:02.535Z,64.45
2019-02-04T10:35:16.652Z,63.80
2019-02-04T10:36:13.556Z,62.71
2019-02-04T10:37:17.163Z,62.99
2019-02-04T10:38:20.676Z,63.15
2019-02-04T10:39:24.223Z,63.60
2019-02-04T10:40:29.761Z,63.87
2019-02-04T10:41:33.337Z,63.49
2019-02-04T10:42:36.878Z,63.17
2019-02-04T10:43:40.543Z,62.91
2019-02-04T10:44:44.125Z,62.50
2019-02-04T10:45:47.667Z,62.76
2019-02-04T10:46:51.191Z,62.96
2019-02-04T10:47:54.927Z,62.47
2019-02-04T10:48:58.819Z,62.14
2019-02-04T10:50:02.362Z,61.75
2019-02-04T10:51:05.977Z,62.33
2019-02-04T10:52:09.476Z,62.71
2019-02-04T10:53:13.072Z,62.37
2019-02-04T10:54:16.473Z,62.10
2019-02-04T10:55:20.054Z,61.95
2019-02-04T10:56:23.570Z,62.26
2019-02-04T10:57:27.064Z,62.77
2019-02-04T10:58:30.603Z,62.70
2019-02-04T10:59:34.059Z,63.15
2019-02-04T11:00:38.514Z,63.11
2019-02-04T11:01:42.133Z,63.02
2019-02-04T11:02:46.194Z,62.44
2019-02-04T11:03:49.648Z,62.96
2019-02-04T11:04:53.114Z,62.63
2019-02-04T11:05:56.591Z,62.17
2019-02-04T11:07:00.154Z,62.08
2019-02-04T11:08:04.139Z,62.15
2019-02-04T11:09:08.915Z,61.32
2019-02-04T11:10:15.466Z,62.05
2019-02-04T11:11:18.932Z,62.17
2019-02-04T11:12:22.403Z,62.29
2019-02-04T11:13:25.877Z,62.14
2019-02-04T11:14:29.562Z,62.00
2019-02-04T11:15:33.316Z,62.41
2019-02-04T11:16:37.161Z,61.90
2019-02-04T11:17:41.001Z,62.27
2019-02-04T11:18:44.548Z,62.38
2019-02-04T11:19:48.003Z,62.32
2019-02-04T11:20:58.163Z,62.21
2019-02-04T11:21:56.916Z,62.18
2019-02-04T11:23:00.583Z,62.37
2019-02-04T11:24:04.671Z,60.73
2019-02-04T11:25:08.975Z,61.74
2019-02-04T11:26:12.576Z,61.87
2019-02-04T11:27:16.102Z,62.10
2019-02-04T11:28:19.683Z,62.03
2019-02-04T11:29:23.270Z,61.92
2019-02-04T11:30:29.772Z,62.27
2019-02-04T11:31:33.290Z,62.39
2019-02-04T11:32:37.143Z,62.62
2019-02-04T11:33:40.782Z,62.49
2019-02-04T11:34:44.232Z,62.11
2019-02-04T11:35:47.877Z,62.57
2019-02-04T11:36:51.374Z,62.15
2019-02-04T11:37:57.794Z,61.75
2019-02-04T11:39:01.259Z,61.80
2019-02-04T11:40:07.708Z,61.95
2019-02-04T11:41:11.217Z,61.86
2019-02-04T11:42:14.679Z,61.66
2019-02-04T11:43:18.156Z,61.38
2019-02-04T11:44:21.768Z,61.05
2019-02-04T11:45:25.601Z,60.96
2019-02-04T11:46:29.010Z,61.38
2019-02-04T11:47:32.619Z,61.61
2019-02-04T11:48:36.581Z,61.09
2019-02-04T11:49:40.073Z,61.10
2019-02-04T11:50:43.684Z,60.72
2019-02-04T11:51:47.125Z,59.89
2019-02-04T11:52:50.637Z,60.52
2019-02-04T11:53:54.253Z,59.89
2019-02-04T11:54:57.697Z,60.11
2019-02-04T11:56:01.208Z,59.89
2019-02-04T11:57:04.733Z,60.35
2019-02-04T11:58:08.409Z,60.21
2019-02-04T11:59:11.836Z,60.52
2019-02-04T12:00:18.281Z,59.78
2019-02-04T12:01:21.849Z,59.42
2019-02-04T12:02:34.384Z,59.07
2019-02-04T12:03:31.004Z,58.72
2019-02-04T12:04:34.510Z,59.51
2019-02-04T12:05:39.117Z,59.52
2019-02-04T12:06:42.936Z,59.50
2019-02-04T12:07:52.477Z,59.77
2019-02-04T12:08:58.314Z,59.35
2019-02-04T12:10:01.886Z,59.23
2019-02-04T12:11:06.331Z,59.69
2019-02-04T12:12:10.389Z,59.33
2019-02-04T12:13:13.972Z,59.32
2019-02-04T12:14:17.382Z,59.13
2019-02-04T12:15:22.606Z,59.80
2019-02-04T12:16:26.116Z,59.91
2019-02-04T12:17:29.615Z,59.46
2019-02-04T12:18:33.129Z,58.70
2019-02-04T12:19:36.947Z,59.17
2019-02-04T12:20:40.450Z,57.47
2019-02-04T12:21:43.954Z,57.12
2019-02-04T12:22:49.022Z,57.19
2019-02-04T12:23:52.543Z,56.81
2019-02-04T12:24:55.992Z,57.19
2019-02-04T12:25:59.491Z,56.79
2019-02-04T12:27:02.927Z,55.36
2019-02-04T12:28:06.600Z,55.92
2019-02-04T12:29:10.116Z,56.17
2019-02-04T12:30:19.575Z,57.03
2019-02-04T12:31:23.107Z,56.35
2019-02-04T12:32:26.599Z,55.82
2019-02-04T12:33:30.113Z,56.62
2019-02-04T12:34:33.853Z,56.07
2019-02-04T12:35:37.420Z,54.86
2019-02-04T12:36:43.750Z,54.35
2019-02-04T12:37:47.417Z,55.11
2019-02-04T12:38:51.021Z,54.44
2019-02-04T12:39:54.670Z,53.69
2019-02-04T12:40:58.120Z,53.71
2019-02-04T12:42:01.628Z,52.58
2019-02-04T12:43:05.485Z,50.59
2019-02-04T12:44:09.124Z,48.59
2019-02-04T12:45:26.735Z,44.46
2019-02-04T12:46:30.165Z,43.88
2019-02-04T12:47:33.681Z,42.43
2019-02-04T12:48:37.191Z,39.90
2019-02-04T12:49:40.707Z,38.27
2019-02-04T12:50:44.311Z,37.69
2019-02-04T12:51:48.162Z,38.08
2019-02-04T12:52:51.755Z,41.80
2019-02-04T12:53:55.220Z,43.89
2019-02-04T12:54:58.631Z,46.21
2019-02-04T12:56:02.083Z,47.64
2019-02-04T12:57:05.663Z,48.96
2019-02-04T12:58:09.246Z,48.28
2019-02-04T12:59:12.832Z,48.89
2019-02-04T13:00:21.463Z,48.82
2019-02-04T13:01:24.993Z,49.50
2019-02-04T13:02:28.562Z,49.06
2019-02-04T13:03:31.990Z,49.27
2019-02-04T13:04:35.533Z,49.76
2019-02-04T13:05:41.526Z,50.20
2019-02-04T13:06:46.921Z,50.85
2019-02-04T13:07:50.331Z,51.69
2019-02-04T13:08:54.015Z,50.53
2019-02-04T13:09:57.522Z,50.89
2019-02-04T13:11:00.963Z,51.00
2019-02-04T13:12:04.585Z,51.66
2019-02-04T13:13:10.044Z,51.12
2019-02-04T13:14:13.555Z,52.13
2019-02-04T13:15:24.821Z,52.11
2019-02-04T13:16:28.385Z,50.98
2019-02-04T13:17:31.916Z,49.58
2019-02-04T13:18:35.413Z,50.81
2019-02-04T13:19:40.075Z,50.23
2019-02-04T13:20:43.646Z,51.05
2019-02-04T13:21:47.176Z,51.51
2019-02-04T13:22:51.289Z,52.10
2019-02-04T13:23:55.056Z,52.21
2019-02-04T13:24:58.765Z,52.36
2019-02-04T13:26:02.213Z,51.91
2019-02-04T13:27:05.806Z,52.14
2019-02-04T13:28:12.509Z,52.84
2019-02-04T13:29:16.087Z,52.59
2019-02-04T13:30:22.099Z,53.16
2019-02-04T13:31:25.601Z,53.88
2019-02-04T13:32:29.049Z,54.10
2019-02-04T13:33:32.577Z,54.10
2019-02-04T13:34:36.014Z,54.39
2019-02-04T13:35:39.883Z,53.69
2019-02-04T13:36:43.320Z,51.88
2019-02-04T13:37:46.858Z,51.04
2019-02-04T13:38:50.384Z,50.36
2019-02-04T13:39:54.200Z,49.96
2019-02-04T13:41:07.460Z,49.63
2019-02-04T13:42:02.883Z,50.00
2019-02-04T13:43:06.808Z,49.55